sensor_id;sensor_type;location;lat;lon;timestamp;P1;durP1;ratioP1;P2;durP2;ratioP2
21657;SDS011;10990;48.174;9.782;2024-02-16T00:03:38;5.43;;;3.70;;
21657;SDS011;10990;48.174;9.782;2024-02-16T00:06:05;7.17;;;3.97;;
21657;SDS011;10990;48.174;9.782;2024-02-16T00:08:32;5.93;;;3.87;;
21657;SDS011;10990;48.174;9.782;2024-02-16T00:11:03;8.37;;;4.50;;
21657;SDS011;10990;48.174;9.782;2024-02-16T00:13:29;7.30;;;4.37;;
21657;SDS011;10990;48.174;9.782;2024-02-16T00:15:55;7.60;;;4.43;;
21657;SDS011;10990;48.174;9.782;2024-02-16T00:18:25;6.87;;;3.93;;
21657;SDS011;10990;48.174;9.782;2024-02-16T00:20:51;6.03;;;4.07;;
21657;SDS011;10990;48.174;9.782;2024-02-16T00:23:17;7.50;;;4.30;;
21657;SDS011;10990;48.174;9.782;2024-02-16T00:25:43;6.93;;;4.10;;
21657;SDS011;10990;48.174;9.782;2024-02-16T00:28:09;6.13;;;4.10;;
21657;SDS011;10990;48.174;9.782;2024-02-16T00:30:34;7.57;;;4.10;;
21657;SDS011;10990;48.174;9.782;2024-02-16T00:33:00;6.87;;;3.80;;
21657;SDS011;10990;48.174;9.782;2024-02-16T00:38:09;6.40;;;4.33;;
21657;SDS011;10990;48.174;9.782;2024-02-16T00:40:35;9.03;;;4.77;;
21657;SDS011;10990;48.174;9.782;2024-02-16T00:43:22;6.77;;;4.20;;
21657;SDS011;10990;48.174;9.782;2024-02-16T00:45:47;6.80;;;4.40;;
21657;SDS011;10990;48.174;9.782;2024-02-16T00:48:13;8.17;;;4.90;;
21657;SDS011;10990;48.174;9.782;2024-02-16T00:50:39;6.63;;;4.33;;
21657;SDS011;10990;48.174;9.782;2024-02-16T00:53:08;7.20;;;3.90;;
21657;SDS011;10990;48.174;9.782;2024-02-16T00:55:34;6.97;;;4.33;;
21657;SDS011;10990;48.174;9.782;2024-02-16T00:58:00;8.80;;;4.27;;
21657;SDS011;10990;48.174;9.782;2024-02-16T01:00:26;7.77;;;4.13;;
21657;SDS011;10990;48.174;9.782;2024-02-16T01:02:52;6.50;;;4.50;;
21657;SDS011;10990;48.174;9.782;2024-02-16T01:05:18;7.40;;;4.70;;
21657;SDS011;10990;48.174;9.782;2024-02-16T01:07:44;8.57;;;4.63;;
21657;SDS011;10990;48.174;9.782;2024-02-16T01:10:12;6.77;;;4.63;;
21657;SDS011;10990;48.174;9.782;2024-02-16T01:12:38;8.20;;;4.73;;
21657;SDS011;10990;48.174;9.782;2024-02-16T01:15:05;9.30;;;4.90;;
21657;SDS011;10990;48.174;9.782;2024-02-16T01:17:32;7.93;;;4.90;;
21657;SDS011;10990;48.174;9.782;2024-02-16T01:19:58;9.13;;;4.97;;
21657;SDS011;10990;48.174;9.782;2024-02-16T01:22:24;8.10;;;5.20;;
21657;SDS011;10990;48.174;9.782;2024-02-16T01:24:49;7.37;;;4.63;;
21657;SDS011;10990;48.174;9.782;2024-02-16T01:27:18;8.07;;;4.87;;
21657;SDS011;10990;48.174;9.782;2024-02-16T01:29:44;10.00;;;5.00;;
21657;SDS011;10990;48.174;9.782;2024-02-16T01:32:10;8.63;;;4.70;;
21657;SDS011;10990;48.174;9.782;2024-02-16T01:34:36;7.73;;;4.83;;
21657;SDS011;10990;48.174;9.782;2024-02-16T01:37:01;8.23;;;5.17;;
21657;SDS011;10990;48.174;9.782;2024-02-16T01:40:09;8.77;;;5.03;;
21657;SDS011;10990;48.174;9.782;2024-02-16T01:42:37;8.83;;;5.17;;
21657;SDS011;10990;48.174;9.782;2024-02-16T01:45:04;9.00;;;5.43;;
21657;SDS011;10990;48.174;9.782;2024-02-16T01:47:30;8.53;;;4.80;;
21657;SDS011;10990;48.174;9.782;2024-02-16T01:49:56;6.70;;;4.67;;
21657;SDS011;10990;48.174;9.782;2024-02-16T01:52:22;8.23;;;5.20;;
21657;SDS011;10990;48.174;9.782;2024-02-16T01:54:48;7.87;;;4.97;;
21657;SDS011;10990;48.174;9.782;2024-02-16T01:57:14;9.03;;;5.03;;
21657;SDS011;10990;48.174;9.782;2024-02-16T01:59:43;8.80;;;4.93;;
21657;SDS011;10990;48.174;9.782;2024-02-16T02:02:09;7.63;;;4.87;;
21657;SDS011;10990;48.174;9.782;2024-02-16T02:04:36;7.43;;;4.67;;
21657;SDS011;10990;48.174;9.782;2024-02-16T02:07:10;8.43;;;5.30;;
21657;SDS011;10990;48.174;9.782;2024-02-16T02:09:36;7.60;;;4.77;;
21657;SDS011;10990;48.174;9.782;2024-02-16T02:12:03;8.53;;;5.43;;
21657;SDS011;10990;48.174;9.782;2024-02-16T02:14:29;8.87;;;5.50;;
21657;SDS011;10990;48.174;9.782;2024-02-16T02:16:57;7.40;;;4.73;;
21657;SDS011;10990;48.174;9.782;2024-02-16T02:19:23;9.90;;;4.80;;
21657;SDS011;10990;48.174;9.782;2024-02-16T02:21:50;7.90;;;4.70;;
21657;SDS011;10990;48.174;9.782;2024-02-16T02:24:18;8.03;;;4.93;;
21657;SDS011;10990;48.174;9.782;2024-02-16T02:26:44;7.53;;;4.90;;
21657;SDS011;10990;48.174;9.782;2024-02-16T02:29:10;8.03;;;5.03;;
21657;SDS011;10990;48.174;9.782;2024-02-16T02:31:36;7.10;;;4.73;;
21657;SDS011;10990;48.174;9.782;2024-02-16T02:34:02;7.83;;;4.90;;
21657;SDS011;10990;48.174;9.782;2024-02-16T02:36:28;5.63;;;4.33;;
21657;SDS011;10990;48.174;9.782;2024-02-16T02:38:54;7.23;;;4.50;;
21657;SDS011;10990;48.174;9.782;2024-02-16T02:41:23;7.60;;;4.83;;
21657;SDS011;10990;48.174;9.782;2024-02-16T02:43:49;8.20;;;5.37;;
21657;SDS011;10990;48.174;9.782;2024-02-16T02:46:14;8.00;;;5.10;;
21657;SDS011;10990;48.174;9.782;2024-02-16T02:48:41;9.23;;;5.27;;
21657;SDS011;10990;48.174;9.782;2024-02-16T02:51:07;8.30;;;5.07;;
21657;SDS011;10990;48.174;9.782;2024-02-16T02:53:33;7.17;;;4.70;;
21657;SDS011;10990;48.174;9.782;2024-02-16T02:55:59;7.47;;;4.83;;
21657;SDS011;10990;48.174;9.782;2024-02-16T02:58:27;6.80;;;4.83;;
21657;SDS011;10990;48.174;9.782;2024-02-16T03:00:54;8.20;;;5.10;;
21657;SDS011;10990;48.174;9.782;2024-02-16T03:03:20;8.07;;;5.10;;
21657;SDS011;10990;48.174;9.782;2024-02-16T03:05:46;7.63;;;4.60;;
21657;SDS011;10990;48.174;9.782;2024-02-16T03:08:12;8.90;;;4.80;;
21657;SDS011;10990;48.174;9.782;2024-02-16T03:10:38;7.63;;;4.97;;
21657;SDS011;10990;48.174;9.782;2024-02-16T03:13:04;7.47;;;4.67;;
21657;SDS011;10990;48.174;9.782;2024-02-16T03:15:32;6.57;;;4.67;;
21657;SDS011;10990;48.174;9.782;2024-02-16T03:17:58;7.67;;;5.20;;
21657;SDS011;10990;48.174;9.782;2024-02-16T03:20:25;6.20;;;4.67;;
21657;SDS011;10990;48.174;9.782;2024-02-16T03:22:50;8.57;;;5.47;;
21657;SDS011;10990;48.174;9.782;2024-02-16T03:25:16;7.87;;;5.73;;
21657;SDS011;10990;48.174;9.782;2024-02-16T03:27:43;7.37;;;5.10;;
21657;SDS011;10990;48.174;9.782;2024-02-16T03:30:09;8.87;;;5.20;;
21657;SDS011;10990;48.174;9.782;2024-02-16T03:32:38;8.40;;;5.50;;
21657;SDS011;10990;48.174;9.782;2024-02-16T03:35:04;7.83;;;5.57;;
21657;SDS011;10990;48.174;9.782;2024-02-16T03:37:31;7.03;;;5.10;;
21657;SDS011;10990;48.174;9.782;2024-02-16T03:39:56;8.00;;;5.37;;
21657;SDS011;10990;48.174;9.782;2024-02-16T03:42:23;6.67;;;4.87;;
21657;SDS011;10990;48.174;9.782;2024-02-16T03:44:48;7.00;;;5.10;;
21657;SDS011;10990;48.174;9.782;2024-02-16T03:47:14;9.83;;;5.67;;
21657;SDS011;10990;48.174;9.782;2024-02-16T03:49:43;10.37;;;5.30;;
21657;SDS011;10990;48.174;9.782;2024-02-16T03:52:09;9.90;;;5.60;;
21657;SDS011;10990;48.174;9.782;2024-02-16T03:54:35;9.57;;;5.60;;
21657;SDS011;10990;48.174;9.782;2024-02-16T03:57:01;9.90;;;5.70;;
21657;SDS011;10990;48.174;9.782;2024-02-16T03:59:27;8.27;;;5.90;;
21657;SDS011;10990;48.174;9.782;2024-02-16T04:01:53;9.67;;;6.00;;
21657;SDS011;10990;48.174;9.782;2024-02-16T04:04:19;8.93;;;5.60;;
21657;SDS011;10990;48.174;9.782;2024-02-16T04:06:47;8.70;;;5.43;;
21657;SDS011;10990;48.174;9.782;2024-02-16T04:09:13;8.67;;;5.40;;
21657;SDS011;10990;48.174;9.782;2024-02-16T04:11:39;8.00;;;5.43;;
21657;SDS011;10990;48.174;9.782;2024-02-16T04:14:05;9.20;;;5.70;;
21657;SDS011;10990;48.174;9.782;2024-02-16T04:16:31;8.17;;;5.70;;
21657;SDS011;10990;48.174;9.782;2024-02-16T04:18:57;8.37;;;5.50;;
21657;SDS011;10990;48.174;9.782;2024-02-16T04:21:23;7.27;;;5.40;;
21657;SDS011;10990;48.174;9.782;2024-02-16T04:23:52;8.90;;;6.20;;
21657;SDS011;10990;48.174;9.782;2024-02-16T04:26:18;7.13;;;5.53;;
21657;SDS011;10990;48.174;9.782;2024-02-16T04:28:44;9.27;;;5.70;;
21657;SDS011;10990;48.174;9.782;2024-02-16T04:31:10;8.20;;;5.77;;
21657;SDS011;10990;48.174;9.782;2024-02-16T04:33:36;11.67;;;6.57;;
21657;SDS011;10990;48.174;9.782;2024-02-16T04:36:02;9.90;;;5.93;;
21657;SDS011;10990;48.174;9.782;2024-02-16T04:38:30;9.37;;;6.20;;
21657;SDS011;10990;48.174;9.782;2024-02-16T04:40:58;9.43;;;6.67;;
21657;SDS011;10990;48.174;9.782;2024-02-16T04:43:24;12.57;;;6.50;;
21657;SDS011;10990;48.174;9.782;2024-02-16T04:45:50;8.17;;;5.53;;
21657;SDS011;10990;48.174;9.782;2024-02-16T04:48:16;8.90;;;5.50;;
21657;SDS011;10990;48.174;9.782;2024-02-16T04:50:42;7.00;;;5.40;;
21657;SDS011;10990;48.174;9.782;2024-02-16T04:53:08;10.77;;;5.90;;
21657;SDS011;10990;48.174;9.782;2024-02-16T04:55:34;7.50;;;5.50;;
21657;SDS011;10990;48.174;9.782;2024-02-16T04:58:03;8.70;;;5.90;;
21657;SDS011;10990;48.174;9.782;2024-02-16T05:00:29;10.47;;;6.27;;
21657;SDS011;10990;48.174;9.782;2024-02-16T05:02:55;9.40;;;5.90;;
21657;SDS011;10990;48.174;9.782;2024-02-16T05:05:21;8.03;;;5.90;;
21657;SDS011;10990;48.174;9.782;2024-02-16T05:07:47;10.30;;;6.80;;
21657;SDS011;10990;48.174;9.782;2024-02-16T05:10:14;10.07;;;6.20;;
21657;SDS011;10990;48.174;9.782;2024-02-16T05:12:40;9.37;;;5.60;;
21657;SDS011;10990;48.174;9.782;2024-02-16T05:15:09;10.00;;;6.40;;
21657;SDS011;10990;48.174;9.782;2024-02-16T05:17:35;12.17;;;6.33;;
21657;SDS011;10990;48.174;9.782;2024-02-16T05:20:00;9.23;;;6.07;;
21657;SDS011;10990;48.174;9.782;2024-02-16T05:22:26;12.27;;;6.57;;
21657;SDS011;10990;48.174;9.782;2024-02-16T05:24:52;10.30;;;6.10;;
21657;SDS011;10990;48.174;9.782;2024-02-16T05:27:18;10.53;;;6.73;;
21657;SDS011;10990;48.174;9.782;2024-02-16T05:32:49;9.30;;;6.50;;
21657;SDS011;10990;48.174;9.782;2024-02-16T05:35:15;10.73;;;5.97;;
21657;SDS011;10990;48.174;9.782;2024-02-16T05:37:43;11.80;;;6.60;;
21657;SDS011;10990;48.174;9.782;2024-02-16T05:40:10;10.70;;;7.20;;
21657;SDS011;10990;48.174;9.782;2024-02-16T05:42:36;11.40;;;7.50;;
21657;SDS011;10990;48.174;9.782;2024-02-16T05:45:02;11.10;;;7.10;;
21657;SDS011;10990;48.174;9.782;2024-02-16T05:47:29;11.17;;;7.30;;
21657;SDS011;10990;48.174;9.782;2024-02-16T05:49:57;9.90;;;6.53;;
21657;SDS011;10990;48.174;9.782;2024-02-16T05:52:23;10.53;;;6.30;;
21657;SDS011;10990;48.174;9.782;2024-02-16T05:54:49;10.90;;;6.60;;
21657;SDS011;10990;48.174;9.782;2024-02-16T05:57:15;9.37;;;6.27;;
21657;SDS011;10990;48.174;9.782;2024-02-16T05:59:41;10.30;;;6.37;;
21657;SDS011;10990;48.174;9.782;2024-02-16T06:02:08;12.50;;;6.40;;
21657;SDS011;10990;48.174;9.782;2024-02-16T06:04:34;16.27;;;6.07;;
21657;SDS011;10990;48.174;9.782;2024-02-16T06:07:03;11.83;;;6.13;;
21657;SDS011;10990;48.174;9.782;2024-02-16T06:09:29;16.27;;;7.73;;
21657;SDS011;10990;48.174;9.782;2024-02-16T06:11:55;12.60;;;6.57;;
21657;SDS011;10990;48.174;9.782;2024-02-16T06:14:21;11.67;;;6.57;;
21657;SDS011;10990;48.174;9.782;2024-02-16T06:16:47;9.67;;;6.00;;
21657;SDS011;10990;48.174;9.782;2024-02-16T06:19:13;10.33;;;6.20;;
21657;SDS011;10990;48.174;9.782;2024-02-16T06:21:39;10.57;;;6.40;;
21657;SDS011;10990;48.174;9.782;2024-02-16T06:24:08;11.13;;;6.50;;
21657;SDS011;10990;48.174;9.782;2024-02-16T06:26:34;11.70;;;6.47;;
21657;SDS011;10990;48.174;9.782;2024-02-16T06:29:00;10.17;;;6.33;;
21657;SDS011;10990;48.174;9.782;2024-02-16T06:31:25;11.27;;;5.90;;
21657;SDS011;10990;48.174;9.782;2024-02-16T06:33:51;11.30;;;6.10;;
21657;SDS011;10990;48.174;9.782;2024-02-16T06:36:17;10.13;;;5.83;;
21657;SDS011;10990;48.174;9.782;2024-02-16T06:38:43;12.77;;;5.93;;
21657;SDS011;10990;48.174;9.782;2024-02-16T06:41:11;11.60;;;6.13;;
21657;SDS011;10990;48.174;9.782;2024-02-16T06:43:38;13.37;;;6.27;;
21657;SDS011;10990;48.174;9.782;2024-02-16T06:46:03;12.57;;;6.50;;
21657;SDS011;10990;48.174;9.782;2024-02-16T06:48:29;11.57;;;6.33;;
21657;SDS011;10990;48.174;9.782;2024-02-16T06:50:55;12.67;;;6.63;;
21657;SDS011;10990;48.174;9.782;2024-02-16T06:53:21;10.97;;;6.40;;
21657;SDS011;10990;48.174;9.782;2024-02-16T06:55:47;12.20;;;6.30;;
21657;SDS011;10990;48.174;9.782;2024-02-16T06:58:16;17.37;;;6.87;;
21657;SDS011;10990;48.174;9.782;2024-02-16T07:00:41;19.83;;;6.70;;
21657;SDS011;10990;48.174;9.782;2024-02-16T07:03:07;20.93;;;6.93;;
21657;SDS011;10990;48.174;9.782;2024-02-16T07:05:34;25.73;;;7.47;;
21657;SDS011;10990;48.174;9.782;2024-02-16T07:08:00;25.67;;;7.20;;
21657;SDS011;10990;48.174;9.782;2024-02-16T07:10:25;24.53;;;7.47;;
21657;SDS011;10990;48.174;9.782;2024-02-16T07:12:51;15.73;;;6.57;;
21657;SDS011;10990;48.174;9.782;2024-02-16T07:18:16;19.80;;;7.27;;
21657;SDS011;10990;48.174;9.782;2024-02-16T07:23:44;22.27;;;8.73;;
21657;SDS011;10990;48.174;9.782;2024-02-16T07:29:13;14.03;;;7.57;;
21657;SDS011;10990;48.174;9.782;2024-02-16T07:31:38;16.77;;;7.40;;
21657;SDS011;10990;48.174;9.782;2024-02-16T07:36:48;19.07;;;9.20;;
21657;SDS011;10990;48.174;9.782;2024-02-16T07:39:14;21.23;;;8.90;;
21657;SDS011;10990;48.174;9.782;2024-02-16T07:41:40;15.97;;;8.20;;
21657;SDS011;10990;48.174;9.782;2024-02-16T07:44:06;17.80;;;8.50;;
21657;SDS011;10990;48.174;9.782;2024-02-16T07:46:31;17.03;;;8.83;;
21657;SDS011;10990;48.174;9.782;2024-02-16T07:58:06;19.57;;;8.33;;
21657;SDS011;10990;48.174;9.782;2024-02-16T08:00:32;14.77;;;7.90;;
21657;SDS011;10990;48.174;9.782;2024-02-16T08:02:58;15.80;;;7.83;;
21657;SDS011;10990;48.174;9.782;2024-02-16T08:05:25;20.60;;;7.93;;
21657;SDS011;10990;48.174;9.782;2024-02-16T08:07:51;15.03;;;8.13;;
21657;SDS011;10990;48.174;9.782;2024-02-16T08:10:18;18.60;;;8.00;;
21657;SDS011;10990;48.174;9.782;2024-02-16T08:12:44;14.37;;;8.33;;
21657;SDS011;10990;48.174;9.782;2024-02-16T08:15:13;17.23;;;7.70;;
21657;SDS011;10990;48.174;9.782;2024-02-16T08:23:44;16.03;;;8.47;;
21657;SDS011;10990;48.174;9.782;2024-02-16T08:29:11;15.27;;;7.13;;
21657;SDS011;10990;48.174;9.782;2024-02-16T08:31:40;14.73;;;7.35;;
21657;SDS011;10990;48.174;9.782;2024-02-16T08:37:08;11.02;;;6.93;;
21657;SDS011;10990;48.174;9.782;2024-02-16T08:51:12;10.40;;;6.97;;
21657;SDS011;10990;48.174;9.782;2024-02-16T08:59:42;12.02;;;7.07;;
21657;SDS011;10990;48.174;9.782;2024-02-16T09:05:11;9.93;;;6.70;;
21657;SDS011;10990;48.174;9.782;2024-02-16T09:10:41;7.65;;;6.03;;
21657;SDS011;10990;48.174;9.782;2024-02-16T09:13:07;8.57;;;5.80;;
21657;SDS011;10990;48.174;9.782;2024-02-16T09:18:35;10.40;;;6.45;;
21657;SDS011;10990;48.174;9.782;2024-02-16T09:27:02;12.90;;;6.95;;
21657;SDS011;10990;48.174;9.782;2024-02-16T09:32:31;11.07;;;6.90;;
21657;SDS011;10990;48.174;9.782;2024-02-16T09:34:57;9.15;;;6.55;;
21657;SDS011;10990;48.174;9.782;2024-02-16T09:40:21;8.68;;;6.45;;
21657;SDS011;10990;48.174;9.782;2024-02-16T09:45:54;10.18;;;5.65;;
21657;SDS011;10990;48.174;9.782;2024-02-16T09:48:20;8.40;;;5.80;;
21657;SDS011;10990;48.174;9.782;2024-02-16T09:56:51;5.95;;;4.43;;
21657;SDS011;10990;48.174;9.782;2024-02-16T10:02:03;7.10;;;4.13;;
21657;SDS011;10990;48.174;9.782;2024-02-16T10:10:34;7.60;;;4.03;;
21657;SDS011;10990;48.174;9.782;2024-02-16T10:19:07;7.05;;;4.03;;
21657;SDS011;10990;48.174;9.782;2024-02-16T10:21:33;6.30;;;3.83;;
21657;SDS011;10990;48.174;9.782;2024-02-16T10:27:02;8.27;;;4.47;;
21657;SDS011;10990;48.174;9.782;2024-02-16T10:35:34;9.65;;;4.78;;
21657;SDS011;10990;48.174;9.782;2024-02-16T10:41:03;7.25;;;4.85;;
21657;SDS011;10990;48.174;9.782;2024-02-16T10:49:35;7.13;;;4.35;;
21657;SDS011;10990;48.174;9.782;2024-02-16T11:01:10;5.72;;;4.20;;
21657;SDS011;10990;48.174;9.782;2024-02-16T11:03:37;8.02;;;4.65;;
21657;SDS011;10990;48.174;9.782;2024-02-16T11:06:11;6.78;;;4.30;;
21657;SDS011;10990;48.174;9.782;2024-02-16T11:14:44;7.55;;;4.45;;
21657;SDS011;10990;48.174;9.782;2024-02-16T11:23:18;6.43;;;4.05;;
21657;SDS011;10990;48.174;9.782;2024-02-16T11:26:02;6.63;;;3.95;;
21657;SDS011;10990;48.174;9.782;2024-02-16T11:28:31;5.45;;;3.80;;
21657;SDS011;10990;48.174;9.782;2024-02-16T11:33:43;4.97;;;3.15;;
21657;SDS011;10990;48.174;9.782;2024-02-16T11:36:09;4.68;;;2.83;;
21657;SDS011;10990;48.174;9.782;2024-02-16T11:41:39;4.22;;;2.80;;
21657;SDS011;10990;48.174;9.782;2024-02-16T11:44:05;5.75;;;3.10;;
21657;SDS011;10990;48.174;9.782;2024-02-16T11:46:31;7.38;;;3.50;;
21657;SDS011;10990;48.174;9.782;2024-02-16T11:49:04;5.75;;;3.20;;
21657;SDS011;10990;48.174;9.782;2024-02-16T11:51:30;5.72;;;3.78;;
21657;SDS011;10990;48.174;9.782;2024-02-16T12:00:00;5.70;;;3.15;;
21657;SDS011;10990;48.174;9.782;2024-02-16T12:02:26;6.82;;;3.05;;
21657;SDS011;10990;48.174;9.782;2024-02-16T12:04:57;3.83;;;2.70;;
21657;SDS011;10990;48.174;9.782;2024-02-16T12:10:05;3.78;;;2.47;;
21657;SDS011;10990;48.174;9.782;2024-02-16T12:15:15;5.10;;;2.50;;
21657;SDS011;10990;48.174;9.782;2024-02-16T12:20:25;6.50;;;3.10;;
21657;SDS011;10990;48.174;9.782;2024-02-16T12:22:52;6.13;;;2.80;;
21657;SDS011;10990;48.174;9.782;2024-02-16T12:28:15;5.13;;;3.00;;
21657;SDS011;10990;48.174;9.782;2024-02-16T12:30:44;5.53;;;2.75;;
21657;SDS011;10990;48.174;9.782;2024-02-16T12:42:09;4.65;;;2.58;;
21657;SDS011;10990;48.174;9.782;2024-02-16T12:44:35;4.20;;;2.50;;
21657;SDS011;10990;48.174;9.782;2024-02-16T12:47:04;5.82;;;2.30;;
21657;SDS011;10990;48.174;9.782;2024-02-16T12:49:30;3.70;;;2.20;;
21657;SDS011;10990;48.174;9.782;2024-02-16T12:51:55;5.78;;;2.70;;
21657;SDS011;10990;48.174;9.782;2024-02-16T12:54:21;3.40;;;2.25;;
21657;SDS011;10990;48.174;9.782;2024-02-16T12:56:47;6.50;;;2.40;;
21657;SDS011;10990;48.174;9.782;2024-02-16T12:59:13;6.15;;;2.55;;
21657;SDS011;10990;48.174;9.782;2024-02-16T13:01:39;4.55;;;2.40;;
21657;SDS011;10990;48.174;9.782;2024-02-16T13:04:08;4.53;;;2.70;;
21657;SDS011;10990;48.174;9.782;2024-02-16T13:12:38;4.63;;;2.70;;
21657;SDS011;10990;48.174;9.782;2024-02-16T13:18:08;6.45;;;2.90;;
21657;SDS011;10990;48.174;9.782;2024-02-16T13:20:36;6.53;;;3.03;;
21657;SDS011;10990;48.174;9.782;2024-02-16T13:23:02;5.07;;;2.90;;
21657;SDS011;10990;48.174;9.782;2024-02-16T13:25:29;5.88;;;2.80;;
21657;SDS011;10990;48.174;9.782;2024-02-16T13:27:55;5.15;;;2.90;;
21657;SDS011;10990;48.174;9.782;2024-02-16T13:30:20;5.55;;;3.40;;
21657;SDS011;10990;48.174;9.782;2024-02-16T13:35:51;5.53;;;2.97;;
21657;SDS011;10990;48.174;9.782;2024-02-16T13:38:17;6.60;;;2.97;;
21657;SDS011;10990;48.174;9.782;2024-02-16T13:40:43;7.45;;;2.95;;
21657;SDS011;10990;48.174;9.782;2024-02-16T13:43:09;6.15;;;2.67;;
21657;SDS011;10990;48.174;9.782;2024-02-16T13:54:44;4.93;;;2.80;;
21657;SDS011;10990;48.174;9.782;2024-02-16T13:57:11;4.03;;;2.35;;
21657;SDS011;10990;48.174;9.782;2024-02-16T13:59:38;5.68;;;2.65;;
21657;SDS011;10990;48.174;9.782;2024-02-16T14:02:03;6.22;;;2.83;;
21657;SDS011;10990;48.174;9.782;2024-02-16T14:04:30;4.55;;;2.90;;
21657;SDS011;10990;48.174;9.782;2024-02-16T14:06:56;6.05;;;2.83;;
21657;SDS011;10990;48.174;9.782;2024-02-16T14:09:23;7.80;;;2.90;;
21657;SDS011;10990;48.174;9.782;2024-02-16T14:11:51;6.50;;;2.90;;
21657;SDS011;10990;48.174;9.782;2024-02-16T14:14:17;6.78;;;2.90;;
21657;SDS011;10990;48.174;9.782;2024-02-16T14:16:43;5.72;;;2.90;;
21657;SDS011;10990;48.174;9.782;2024-02-16T14:19:17;4.18;;;2.75;;
21657;SDS011;10990;48.174;9.782;2024-02-16T14:21:47;5.10;;;2.92;;
21657;SDS011;10990;48.174;9.782;2024-02-16T14:24:14;6.00;;;3.17;;
21657;SDS011;10990;48.174;9.782;2024-02-16T14:26:40;7.40;;;3.08;;
21657;SDS011;10990;48.174;9.782;2024-02-16T14:29:09;5.78;;;2.65;;
21657;SDS011;10990;48.174;9.782;2024-02-16T14:31:35;6.57;;;2.75;;
21657;SDS011;10990;48.174;9.782;2024-02-16T14:34:02;6.60;;;2.83;;
21657;SDS011;10990;48.174;9.782;2024-02-16T14:36:28;7.53;;;2.70;;
21657;SDS011;10990;48.174;9.782;2024-02-16T14:38:54;5.90;;;2.70;;
21657;SDS011;10990;48.174;9.782;2024-02-16T14:41:21;6.93;;;3.53;;
21657;SDS011;10990;48.174;9.782;2024-02-16T14:43:47;7.45;;;3.58;;
21657;SDS011;10990;48.174;9.782;2024-02-16T14:46:15;4.88;;;3.25;;
21657;SDS011;10990;48.174;9.782;2024-02-16T14:48:42;7.10;;;3.78;;
21657;SDS011;10990;48.174;9.782;2024-02-16T14:51:09;7.80;;;4.00;;
21657;SDS011;10990;48.174;9.782;2024-02-16T14:53:35;7.47;;;3.88;;
21657;SDS011;10990;48.174;9.782;2024-02-16T14:56:01;6.05;;;3.83;;
21657;SDS011;10990;48.174;9.782;2024-02-16T14:58:27;6.68;;;3.80;;
21657;SDS011;10990;48.174;9.782;2024-02-16T15:00:53;7.45;;;4.20;;
21657;SDS011;10990;48.174;9.782;2024-02-16T15:03:22;8.57;;;4.05;;
21657;SDS011;10990;48.174;9.782;2024-02-16T15:05:50;9.80;;;3.75;;
21657;SDS011;10990;48.174;9.782;2024-02-16T15:08:17;7.65;;;4.10;;
21657;SDS011;10990;48.174;9.782;2024-02-16T15:10:43;7.28;;;3.78;;
21657;SDS011;10990;48.174;9.782;2024-02-16T15:13:09;9.82;;;3.85;;
21657;SDS011;10990;48.174;9.782;2024-02-16T15:15:35;7.18;;;3.75;;
21657;SDS011;10990;48.174;9.782;2024-02-16T15:18:01;6.15;;;3.60;;
21657;SDS011;10990;48.174;9.782;2024-02-16T15:20:30;6.85;;;3.40;;
21657;SDS011;10990;48.174;9.782;2024-02-16T15:22:56;7.40;;;3.88;;
21657;SDS011;10990;48.174;9.782;2024-02-16T15:25:23;8.60;;;3.70;;
21657;SDS011;10990;48.174;9.782;2024-02-16T15:27:49;6.18;;;3.50;;
21657;SDS011;10990;48.174;9.782;2024-02-16T15:30:15;6.53;;;3.70;;
21657;SDS011;10990;48.174;9.782;2024-02-16T15:32:41;5.85;;;3.83;;
21657;SDS011;10990;48.174;9.782;2024-02-16T15:35:08;8.77;;;3.65;;
21657;SDS011;10990;48.174;9.782;2024-02-16T15:37:37;6.30;;;3.30;;
21657;SDS011;10990;48.174;9.782;2024-02-16T15:40:03;4.60;;;3.05;;
21657;SDS011;10990;48.174;9.782;2024-02-16T15:42:33;5.90;;;3.17;;
21657;SDS011;10990;48.174;9.782;2024-02-16T15:45:00;6.68;;;3.28;;
21657;SDS011;10990;48.174;9.782;2024-02-16T15:47:27;6.18;;;3.30;;
21657;SDS011;10990;48.174;9.782;2024-02-16T15:49:53;6.05;;;3.60;;
21657;SDS011;10990;48.174;9.782;2024-02-16T15:52:19;4.75;;;3.47;;
21657;SDS011;10990;48.174;9.782;2024-02-16T15:54:48;9.60;;;3.47;;
21657;SDS011;10990;48.174;9.782;2024-02-16T15:57:14;6.15;;;4.10;;
21657;SDS011;10990;48.174;9.782;2024-02-16T15:59:40;6.57;;;3.70;;
21657;SDS011;10990;48.174;9.782;2024-02-16T16:02:08;8.88;;;3.97;;
21657;SDS011;10990;48.174;9.782;2024-02-16T16:04:34;8.70;;;3.80;;
21657;SDS011;10990;48.174;9.782;2024-02-16T16:07:00;8.68;;;3.90;;
21657;SDS011;10990;48.174;9.782;2024-02-16T16:09:26;10.00;;;3.80;;
21657;SDS011;10990;48.174;9.782;2024-02-16T16:11:54;6.72;;;3.65;;
21657;SDS011;10990;48.174;9.782;2024-02-16T16:14:20;7.15;;;4.35;;
21657;SDS011;10990;48.174;9.782;2024-02-16T16:16:46;8.23;;;4.03;;
21657;SDS011;10990;48.174;9.782;2024-02-16T16:19:13;7.20;;;3.78;;
21657;SDS011;10990;48.174;9.782;2024-02-16T16:21:40;6.57;;;3.33;;
21657;SDS011;10990;48.174;9.782;2024-02-16T16:24:08;6.05;;;3.33;;
21657;SDS011;10990;48.174;9.782;2024-02-16T16:26:35;4.78;;;2.85;;
21657;SDS011;10990;48.174;9.782;2024-02-16T16:29:03;6.68;;;3.38;;
21657;SDS011;10990;48.174;9.782;2024-02-16T16:31:29;6.13;;;3.10;;
21657;SDS011;10990;48.174;9.782;2024-02-16T16:33:56;6.47;;;3.42;;
21657;SDS011;10990;48.174;9.782;2024-02-16T16:36:23;8.90;;;3.42;;
21657;SDS011;10990;48.174;9.782;2024-02-16T16:38:50;6.18;;;3.80;;
21657;SDS011;10990;48.174;9.782;2024-02-16T16:41:16;8.15;;;4.18;;
21657;SDS011;10990;48.174;9.782;2024-02-16T16:43:42;7.65;;;4.07;;
21657;SDS011;10990;48.174;9.782;2024-02-16T16:46:11;9.75;;;5.00;;
21657;SDS011;10990;48.174;9.782;2024-02-16T16:48:37;8.50;;;4.47;;
21657;SDS011;10990;48.174;9.782;2024-02-16T16:51:05;8.98;;;4.97;;
21657;SDS011;10990;48.174;9.782;2024-02-16T16:53:32;8.38;;;4.00;;
21657;SDS011;10990;48.174;9.782;2024-02-16T16:55:59;6.88;;;3.78;;
21657;SDS011;10990;48.174;9.782;2024-02-16T16:58:26;6.53;;;3.92;;
21657;SDS011;10990;48.174;9.782;2024-02-16T17:00:54;9.80;;;4.20;;
21657;SDS011;10990;48.174;9.782;2024-02-16T17:03:23;8.48;;;3.92;;
21657;SDS011;10990;48.174;9.782;2024-02-16T17:05:49;9.02;;;3.88;;
21657;SDS011;10990;48.174;9.782;2024-02-16T17:08:15;12.23;;;4.80;;
21657;SDS011;10990;48.174;9.782;2024-02-16T17:10:41;9.07;;;4.75;;
21657;SDS011;10990;48.174;9.782;2024-02-16T17:13:07;11.02;;;5.07;;
21657;SDS011;10990;48.174;9.782;2024-02-16T17:15:33;8.93;;;4.32;;
21657;SDS011;10990;48.174;9.782;2024-02-16T17:17:59;13.45;;;4.28;;
21657;SDS011;10990;48.174;9.782;2024-02-16T17:20:28;8.85;;;4.35;;
21657;SDS011;10990;48.174;9.782;2024-02-16T17:22:54;9.98;;;4.20;;
21657;SDS011;10990;48.174;9.782;2024-02-16T17:25:20;7.10;;;4.32;;
21657;SDS011;10990;48.174;9.782;2024-02-16T17:27:47;8.00;;;4.07;;
21657;SDS011;10990;48.174;9.782;2024-02-16T17:30:13;7.72;;;4.47;;
21657;SDS011;10990;48.174;9.782;2024-02-16T17:32:39;9.25;;;4.30;;
21657;SDS011;10990;48.174;9.782;2024-02-16T17:35:06;9.93;;;3.88;;
21657;SDS011;10990;48.174;9.782;2024-02-16T17:37:36;10.60;;;4.53;;
21657;SDS011;10990;48.174;9.782;2024-02-16T17:40:02;9.25;;;4.93;;
21657;SDS011;10990;48.174;9.782;2024-02-16T17:42:28;9.38;;;4.40;;
21657;SDS011;10990;48.174;9.782;2024-02-16T17:44:54;11.05;;;4.10;;
21657;SDS011;10990;48.174;9.782;2024-02-16T17:47:20;8.93;;;3.90;;
21657;SDS011;10990;48.174;9.782;2024-02-16T17:49:46;9.38;;;3.70;;
21657;SDS011;10990;48.174;9.782;2024-02-16T17:52:12;8.40;;;4.10;;
21657;SDS011;10990;48.174;9.782;2024-02-16T17:54:41;12.88;;;4.80;;
21657;SDS011;10990;48.174;9.782;2024-02-16T17:57:07;13.13;;;7.10;;
21657;SDS011;10990;48.174;9.782;2024-02-16T17:59:33;13.00;;;7.03;;